Time;durP1;ratioP1;P1;durP2;ratioP2;P2;SDS_P1;SDS_P2;PMS_P1;PMS_P2;Temp;Humidity;BMP_temperature;BMP_pressure;BME280_temperature;BME280_humidity;BME280_pressure;Samples;Min_cycle;Max_cycle;Signal;HPM_P1;HPM_P2
2022/10/25 00:02:19;;;;;;;1.57;1.20;;;12.10;99.90;12.00;100333.00;;;;4929059;28;109987;-62
2022/10/25 00:04:45;;;;;;;2.50;1.73;;;12.00;99.90;11.90;100335.00;;;;4925135;28;99558;-63
2022/10/25 00:07:11;;;;;;;2.43;1.00;;;12.00;99.90;11.90;100331.00;;;;4922923;28;94133;-62
2022/10/25 00:09:37;;;;;;;3.23;1.70;;;12.00;99.90;11.90;100339.00;;;;4927756;28;83574;-63
2022/10/25 00:12:03;;;;;;;1.47;1.37;;;12.00;99.90;12.00;100324.00;;;;4928784;28;110403;-62
2022/10/25 00:14:29;;;;;;;3.87;1.53;;;12.00;99.90;12.10;100335.00;;;;4923192;28;101832;-62
2022/10/25 00:16:55;;;;;;;4.70;1.87;;;12.10;99.90;12.30;100335.00;;;;4921024;28;84028;-62
2022/10/25 00:19:20;;;;;;;0.93;0.87;;;12.20;99.90;12.40;100342.00;;;;4922952;28;84638;-62
2022/10/25 00:21:46;;;;;;;2.73;1.60;;;12.30;99.90;12.60;100344.00;;;;4924263;28;110163;-62
2022/10/25 00:24:12;;;;;;;1.73;1.13;;;12.50;99.90;12.70;100333.00;;;;4933886;28;84696;-63
2022/10/25 00:26:41;;;;;;;2.17;1.50;;;12.60;99.90;12.80;100336.00;;;;4930495;28;83413;-62
2022/10/25 00:29:08;;;;;;;1.23;0.93;;;12.70;99.90;12.90;100324.00;;;;4926988;28;83011;-63
2022/10/25 00:31:36;;;;;;;0.97;0.80;;;12.80;99.90;13.00;100343.00;;;;4931049;28;103690;-63
2022/10/25 00:34:01;;;;;;;2.07;1.10;;;12.90;99.90;13.10;100343.00;;;;4926438;28;86860;-62
2022/10/25 00:36:27;;;;;;;1.97;1.17;;;13.00;99.90;13.30;100345.00;;;;4927177;28;111937;-62
2022/10/25 00:38:56;;;;;;;1.17;0.93;;;13.20;99.90;13.30;100345.00;;;;4923850;28;112615;-62
2022/10/25 00:41:28;;;;;;;1.47;1.30;;;13.30;99.90;13.40;100342.00;;;;4924632;28;86677;-63
2022/10/25 00:44:33;;;;;;;1.47;1.27;;;13.40;99.90;13.50;100337.00;;;;4929281;28;82829;-63
2022/10/25 00:47:23;;;;;;;0.97;0.97;;;13.40;99.90;13.60;100343.00;;;;4936041;28;83572;-63
2022/10/25 00:49:58;;;;;;;3.93;1.23;;;13.50;99.90;13.70;100338.00;;;;4925794;28;83726;-64
2022/10/25 00:52:27;;;;;;;1.20;0.90;;;13.60;99.90;13.80;100338.00;;;;4919442;28;82871;-64
2022/10/25 00:54:53;;;;;;;2.97;0.70;;;13.70;99.90;13.80;100342.00;;;;4918656;28;99972;-63
2022/10/25 00:57:31;;;;;;;3.23;1.00;;;13.70;99.90;13.80;100343.00;;;;4926377;28;114034;-63
2022/10/25 00:59:58;;;;;;;1.27;1.17;;;13.70;99.90;13.90;100339.00;;;;4925138;28;103825;-62
2022/10/25 01:02:24;;;;;;;1.10;1.00;;;13.80;99.90;13.90;100332.00;;;;4923583;28;82861;-62
2022/10/25 01:04:50;;;;;;;1.20;0.70;;;13.90;99.90;14.00;100335.00;;;;4928229;28;91519;-62
2022/10/25 01:07:16;;;;;;;3.20;1.00;;;13.90;99.90;14.00;100335.00;;;;4932538;28;84478;-63
2022/10/25 01:09:42;;;;;;;0.87;0.87;;;13.90;99.90;14.00;100335.00;;;;4929699;28;112202;-63
2022/10/25 01:12:08;;;;;;;0.87;0.87;;;14.00;99.90;14.10;100335.00;;;;4919543;28;104636;-63
2022/10/25 01:14:36;;;;;;;2.67;1.40;;;14.00;99.90;14.10;100333.00;;;;4927155;28;107688;-63
2022/10/25 01:17:23;;;;;;;1.33;1.17;;;14.00;99.90;14.10;100324.00;;;;4922080;28;105440;-63
2022/10/25 01:20:12;;;;;;;2.10;1.13;;;14.10;99.90;14.10;100324.00;;;;4929237;28;82773;-62
2022/10/25 01:22:59;;;;;;;0.60;0.60;;;14.10;99.90;14.10;100318.00;;;;4924506;28;94631;-62
2022/10/25 01:26:02;;;;;;;1.43;1.17;;;14.10;99.90;14.10;100322.00;;;;4922444;28;83563;-64
2022/10/25 01:28:49;;;;;;;2.03;1.23;;;14.10;99.90;14.10;100321.00;;;;4931745;28;83276;-62
2022/10/25 01:31:49;;;;;;;1.13;0.90;;;14.00;99.90;14.10;100320.00;;;;4924510;28;83246;-62
2022/10/25 01:34:28;;;;;;;1.07;0.97;;;14.10;99.90;14.10;100315.00;;;;4918612;28;105127;-63
2022/10/25 01:37:26;;;;;;;1.70;0.60;;;14.10;99.90;14.10;100319.00;;;;4918786;28;94690;-63
2022/10/25 01:40:16;;;;;;;1.10;1.00;;;14.10;99.90;14.10;100323.00;;;;4923353;28;84837;-63
2022/10/25 01:42:53;;;;;;;0.63;0.60;;;14.10;99.90;14.10;100332.00;;;;4930156;28;105494;-63
2022/10/25 01:45:30;;;;;;;1.30;0.90;;;14.10;99.90;14.10;100324.00;;;;4919582;28;111260;-63
2022/10/25 01:48:14;;;;;;;1.53;0.87;;;14.10;99.90;14.10;100337.00;;;;4925022;28;94846;-62
2022/10/25 01:50:44;;;;;;;2.53;1.37;;;14.10;99.90;14.10;100325.00;;;;4920037;28;98979;-62
2022/10/25 01:53:11;;;;;;;0.80;0.80;;;14.10;99.90;14.20;100334.00;;;;4923182;28;83503;-63
2022/10/25 01:55:53;;;;;;;1.87;0.90;;;14.10;99.90;14.20;100323.00;;;;4924936;28;83053;-63
2022/10/25 01:58:29;;;;;;;1.47;0.50;;;14.10;99.90;14.20;100325.00;;;;4918688;28;102244;-63
2022/10/25 02:01:34;;;;;;;3.70;1.30;;;14.20;99.90;14.30;100324.00;;;;4924588;28;83009;-63
2022/10/25 02:04:39;;;;;;;1.87;1.20;;;14.20;99.90;14.30;100340.00;;;;4930336;28;106510;-63
2022/10/25 02:07:24;;;;;;;2.87;0.97;;;14.30;99.90;14.40;100331.00;;;;4921601;28;83897;-63
2022/10/25 02:10:15;;;;;;;0.67;0.67;;;14.30;99.90;14.40;100330.00;;;;4919656;28;82627;-63
2022/10/25 02:13:03;;;;;;;6.40;1.40;;;14.30;99.90;14.40;100322.00;;;;4929764;28;105647;-64
2022/10/25 02:15:40;;;;;;;1.20;0.90;;;14.40;99.90;14.50;100335.00;;;;4923017;28;104910;-62
2022/10/25 02:18:16;;;;;;;0.83;0.70;;;14.40;99.90;14.50;100326.00;;;;4921429;28;102292;-63
2022/10/25 02:20:44;;;;;;;1.47;1.27;;;14.40;99.90;14.50;100326.00;;;;4916663;28;102290;-63
2022/10/25 02:23:10;;;;;;;1.23;0.55;;;14.50;99.90;14.60;100332.00;;;;4923902;28;106625;-63
2022/10/25 02:25:39;;;;;;;1.53;0.73;;;14.50;99.90;14.60;100326.00;;;;4931361;28;111849;-62
2022/10/25 02:28:10;;;;;;;1.27;1.00;;;14.50;99.90;14.60;100333.00;;;;4928382;28;100827;-63
2022/10/25 02:30:39;;;;;;;1.95;0.65;;;14.60;99.90;14.70;100336.00;;;;4923767;28;82588;-62
2022/10/25 02:33:05;;;;;;;3.77;0.90;;;14.60;99.90;14.70;100336.00;;;;4925395;28;83627;-63
2022/10/25 02:35:31;;;;;;;4.50;1.23;;;14.60;99.90;14.70;100351.00;;;;4922909;28;113869;-64
2022/10/25 02:37:56;;;;;;;2.58;1.52;;;14.70;99.90;14.80;100350.00;;;;4927543;28;109080;-62
2022/10/25 02:40:23;;;;;;;3.33;1.33;;;14.60;99.90;14.80;100334.00;;;;4923365;28;109357;-63
2022/10/25 02:42:48;;;;;;;1.13;1.00;;;14.70;99.90;14.70;100342.00;;;;4919832;28;113455;-63
2022/10/25 02:45:14;;;;;;;0.90;0.70;;;14.70;99.90;14.70;100346.00;;;;4927167;28;111394;-63
2022/10/25 02:47:40;;;;;;;0.45;0.40;;;14.60;99.90;14.70;100348.00;;;;4933407;28;110066;-60
2022/10/25 02:50:06;;;;;;;0.82;0.80;;;14.60;99.90;14.60;100342.00;;;;4922004;28;109733;-63
2022/10/25 02:52:31;;;;;;;1.13;0.95;;;14.60;99.90;14.60;100354.00;;;;4923201;28;83979;-62
2022/10/25 02:54:57;;;;;;;0.87;0.87;;;14.60;99.90;14.60;100346.00;;;;4924934;28;110637;-62
2022/10/25 02:57:23;;;;;;;1.45;0.82;;;14.50;99.90;14.50;100352.00;;;;4922332;28;109895;-63
2022/10/25 02:59:48;;;;;;;3.70;1.00;;;14.50;99.90;14.50;100349.00;;;;4929497;28;107260;-62
2022/10/25 03:02:14;;;;;;;0.73;0.60;;;14.40;99.90;14.40;100349.00;;;;4922393;28;111719;-64
2022/10/25 03:04:40;;;;;;;0.77;0.70;;;14.40;99.90;14.40;100354.00;;;;4922002;28;113243;-62
2022/10/25 03:07:06;;;;;;;1.13;0.80;;;14.10;99.90;14.40;100355.00;;;;4927843;28;110957;-63
2022/10/25 03:09:31;;;;;;;2.33;1.02;;;14.30;99.90;14.30;100355.00;;;;4932848;28;108111;-62
2022/10/25 03:11:57;;;;;;;0.90;0.83;;;14.30;99.90;14.30;100352.00;;;;4921879;28;111105;-61
2022/10/25 03:14:23;;;;;;;2.73;1.37;;;14.30;99.90;14.30;100366.00;;;;4922343;28;95853;-61
2022/10/25 03:16:48;;;;;;;4.07;2.07;;;14.30;99.90;14.30;100373.00;;;;4925822;28;110546;-62
2022/10/25 03:19:14;;;;;;;1.42;1.30;;;14.30;99.90;14.20;100360.00;;;;4923372;28;109127;-63
2022/10/25 03:21:40;;;;;;;1.67;1.10;;;14.20;99.90;14.20;100372.00;;;;4929238;28;107766;-62
2022/10/25 03:24:06;;;;;;;1.00;0.90;;;14.20;99.90;14.20;100368.00;;;;4926276;28;112333;-62
2022/10/25 03:26:32;;;;;;;2.03;0.90;;;14.20;99.90;14.20;100366.00;;;;4924104;28;82555;-62
2022/10/25 03:28:57;;;;;;;2.40;1.00;;;14.10;99.90;14.10;100367.00;;;;4927623;28;109047;-63
2022/10/25 03:31:24;;;;;;;3.90;1.13;;;14.10;99.90;14.10;100366.00;;;;4928945;28;112136;-63
2022/10/25 03:33:50;;;;;;;2.60;1.40;;;14.00;99.90;14.00;100368.00;;;;4923697;28;83749;-63
2022/10/25 03:36:16;;;;;;;1.03;0.83;;;14.00;99.90;14.00;100358.00;;;;4922247;28;83056;-63
2022/10/25 03:38:41;;;;;;;1.40;1.07;;;14.00;99.90;14.00;100366.00;;;;4923082;28;109428;-63
2022/10/25 03:41:07;;;;;;;0.60;0.53;;;14.00;99.90;14.00;100365.00;;;;4923417;28;112330;-64
2022/10/25 03:43:33;;;;;;;1.33;0.70;;;13.90;99.90;14.00;100370.00;;;;4931662;28;83490;-62
2022/10/25 03:45:59;;;;;;;2.13;1.07;;;13.90;99.90;13.90;100371.00;;;;4927636;28;100979;-64
2022/10/25 03:48:24;;;;;;;4.13;1.07;;;13.90;99.90;13.90;100379.00;;;;4922787;28;92843;-63
2022/10/25 03:50:50;;;;;;;5.20;1.33;;;13.90;99.90;13.90;100377.00;;;;4927501;28;113337;-63
2022/10/25 03:53:16;;;;;;;0.60;0.50;;;13.90;99.90;13.90;100376.00;;;;4924639;28;109661;-65
2022/10/25 03:55:41;;;;;;;1.17;1.00;;;13.80;99.90;13.80;100378.00;;;;4925692;28;109559;-63
2022/10/25 03:58:07;;;;;;;2.63;0.87;;;13.80;99.90;13.80;100383.00;;;;4923340;28;107487;-63
2022/10/25 04:00:33;;;;;;;1.37;0.77;;;13.80;99.90;13.80;100388.00;;;;4928141;28;111172;-63
2022/10/25 04:03:00;;;;;;;2.70;1.27;;;13.80;99.90;13.80;100388.00;;;;4928655;28;111616;-64
2022/10/25 04:05:26;;;;;;;0.87;0.70;;;13.70;99.90;13.80;100385.00;;;;4935656;28;99121;-63
2022/10/25 04:07:52;;;;;;;1.17;1.07;;;13.70;99.90;13.80;100395.00;;;;4928503;28;108143;-63
2022/10/25 04:10:18;;;;;;;4.83;0.93;;;13.70;99.90;13.80;100377.00;;;;4924771;28;113297;-63
2022/10/25 04:12:45;;;;;;;3.93;1.00;;;13.70;99.90;13.80;100384.00;;;;4930674;28;83426;-64
2022/10/25 04:15:12;;;;;;;1.53;0.80;;;13.70;99.90;13.80;100389.00;;;;4927648;28;83343;-63
2022/10/25 04:17:38;;;;;;;3.40;1.40;;;13.70;99.90;13.70;100386.00;;;;4929820;28;101489;-62
2022/10/25 04:20:04;;;;;;;0.60;0.60;;;13.70;99.90;13.70;100390.00;;;;4922907;28;113042;-63
2022/10/25 04:22:30;;;;;;;0.83;0.80;;;13.70;99.90;13.70;100393.00;;;;4922906;28;104039;-61
2022/10/25 04:24:55;;;;;;;1.13;1.03;;;13.60;99.90;13.60;100402.00;;;;4929290;28;110354;-63
2022/10/25 04:27:21;;;;;;;0.80;0.80;;;13.60;99.90;13.60;100395.00;;;;4935573;28;108746;-63
2022/10/25 04:29:47;;;;;;;0.83;0.83;;;13.60;99.90;13.60;100394.00;;;;4926062;28;111278;-63
2022/10/25 04:32:12;;;;;;;2.13;1.03;;;13.50;99.90;13.50;100403.00;;;;4925790;28;112287;-63
2022/10/25 04:34:38;;;;;;;3.57;1.00;;;13.50;99.90;13.50;100396.00;;;;4918977;28;110697;-62
2022/10/25 04:37:04;;;;;;;0.60;0.60;;;13.50;99.90;13.40;100395.00;;;;4924533;28;82696;-62
2022/10/25 04:39:29;;;;;;;0.87;0.83;;;13.40;99.90;13.40;100406.00;;;;4927573;28;112605;-62
2022/10/25 04:41:55;;;;;;;0.70;0.70;;;13.40;99.90;13.30;100403.00;;;;4923956;28;111872;-63
2022/10/25 04:44:21;;;;;;;1.20;1.10;;;13.30;99.90;13.30;100405.00;;;;4923896;28;109861;-63
2022/10/25 04:46:46;;;;;;;1.10;0.90;;;13.30;99.90;13.20;100400.00;;;;4930679;28;109512;-63
2022/10/25 04:49:13;;;;;;;1.27;0.93;;;13.20;99.90;13.20;100403.00;;;;4934961;28;83699;-63
2022/10/25 04:51:39;;;;;;;1.30;0.90;;;13.20;99.90;13.10;100413.00;;;;4924241;28;112235;-62
2022/10/25 04:54:05;;;;;;;1.37;1.27;;;13.20;99.90;13.10;100411.00;;;;4924690;28;82735;-62
2022/10/25 04:56:31;;;;;;;0.83;0.83;;;13.10;99.90;13.00;100408.00;;;;4924376;28;109234;-62
2022/10/25 04:58:58;;;;;;;1.93;1.13;;;13.00;99.90;13.00;100418.00;;;;4924629;28;114708;-63
2022/10/25 05:01:24;;;;;;;0.90;0.63;;;13.00;99.90;13.00;100417.00;;;;4930873;28;105013;-65
2022/10/25 05:03:50;;;;;;;1.07;0.60;;;13.00;99.90;12.90;100420.00;;;;4926853;28;101253;-63
2022/10/25 05:06:23;;;;;;;1.43;1.30;;;12.90;99.90;12.90;100414.00;;;;4922942;28;110209;-63
2022/10/25 05:08:50;;;;;;;1.20;1.10;;;12.90;99.90;12.90;100412.00;;;;4929380;28;83569;-62
2022/10/25 05:11:22;;;;;;;1.03;0.80;;;12.90;99.90;12.80;100419.00;;;;4930135;28;82837;-63
2022/10/25 05:13:48;;;;;;;1.43;1.10;;;12.80;99.90;12.80;100419.00;;;;4924769;28;97589;-63
2022/10/25 05:16:22;;;;;;;1.43;1.00;;;12.80;99.90;12.80;100416.00;;;;4924670;28;81948;-62
2022/10/25 05:18:50;;;;;;;2.10;1.37;;;12.80;99.90;12.80;100408.00;;;;4926633;28;82636;-63
2022/10/25 05:21:17;;;;;;;1.17;0.77;;;12.80;99.90;12.80;100409.00;;;;4927031;28;83264;-63
2022/10/25 05:23:43;;;;;;;2.07;1.10;;;12.70;99.90;12.80;100423.00;;;;4934405;28;83569;-63
2022/10/25 05:26:14;;;;;;;1.47;0.87;;;12.80;99.90;12.80;100413.00;;;;4925848;28;82520;-63
2022/10/25 05:28:41;;;;;;;1.00;0.70;;;12.70;99.90;12.80;100421.00;;;;4925014;28;83521;-62
2022/10/25 05:31:12;;;;;;;0.70;0.70;;;12.80;99.90;12.80;100420.00;;;;4930332;28;83570;-64
2022/10/25 05:33:37;;;;;;;0.67;0.67;;;12.80;99.90;12.90;100423.00;;;;4919942;28;82858;-62
2022/10/25 05:36:03;;;;;;;2.50;0.87;;;12.80;99.90;12.90;100434.00;;;;4924856;28;106838;-63
2022/10/25 05:38:29;;;;;;;5.20;1.13;;;12.80;99.90;12.90;100434.00;;;;4923990;28;83339;-63
2022/10/25 05:40:58;;;;;;;1.37;1.03;;;12.90;99.90;12.90;100438.00;;;;4924901;28;83379;-61
2022/10/25 05:43:25;;;;;;;1.73;0.80;;;12.90;99.90;13.00;100441.00;;;;4929921;28;82677;-63
2022/10/25 05:45:51;;;;;;;3.47;0.87;;;12.90;99.90;13.00;100437.00;;;;4936351;28;101761;-62
2022/10/25 05:48:20;;;;;;;3.70;0.83;;;12.90;99.90;13.00;100444.00;;;;4921523;28;105544;-63
2022/10/25 05:50:46;;;;;;;0.97;0.67;;;12.90;99.90;13.00;100447.00;;;;4924719;28;84698;-63
2022/10/25 05:53:12;;;;;;;2.17;1.07;;;12.70;99.90;13.00;100459.00;;;;4924925;28;82571;-62
2022/10/25 05:55:37;;;;;;;0.73;0.73;;;13.00;99.90;13.00;100446.00;;;;4923597;28;108441;-62
2022/10/25 05:58:03;;;;;;;1.20;0.70;;;13.00;99.90;13.10;100460.00;;;;4927742;28;112315;-63
2022/10/25 06:00:29;;;;;;;6.27;1.10;;;13.00;99.90;13.10;100462.00;;;;4919478;28;111867;-63
2022/10/25 06:02:55;;;;;;;1.00;0.90;;;13.00;99.90;13.20;100467.00;;;;4921652;28;110545;-63
2022/10/25 06:05:21;;;;;;;1.23;0.90;;;13.10;99.90;13.30;100473.00;;;;4931053;28;109646;-63
2022/10/25 06:07:47;;;;;;;0.70;0.70;;;13.20;99.90;13.30;100467.00;;;;4929263;28;112391;-64
2022/10/25 06:10:13;;;;;;;1.10;1.00;;;13.20;99.90;13.40;100471.00;;;;4921413;28;83109;-64
2022/10/25 06:12:38;;;;;;;0.37;0.37;;;13.30;99.90;13.50;100479.00;;;;4922934;28;111139;-63
2022/10/25 06:15:05;;;;;;;1.30;0.77;;;13.40;99.90;13.60;100481.00;;;;4926972;28;108923;-63
2022/10/25 06:17:31;;;;;;;2.50;0.77;;;13.50;99.90;13.70;100485.00;;;;4924648;28;102802;-63
2022/10/25 06:19:56;;;;;;;0.40;0.40;;;13.50;99.90;13.70;100473.00;;;;4928217;28;111042;-62
2022/10/25 06:22:22;;;;;;;1.70;0.90;;;13.60;99.90;13.80;100485.00;;;;4915573;28;109825;-63
2022/10/25 06:24:48;;;;;;;1.80;0.70;;;13.70;99.90;13.80;100484.00;;;;4924173;28;107588;-62
2022/10/25 06:27:13;;;;;;;0.80;0.60;;;13.80;99.90;13.90;100489.00;;;;4930295;28;112332;-61
2022/10/25 06:29:39;;;;;;;1.77;0.83;;;13.80;99.90;13.90;100489.00;;;;4926665;28;112067;-62
2022/10/25 06:32:04;;;;;;;1.60;0.90;;;13.90;99.90;14.00;100498.00;;;;4920769;28;109330;-63
2022/10/25 06:34:30;;;;;;;0.47;0.47;;;13.90;99.90;14.10;100491.00;;;;4922904;28;108876;-63
2022/10/25 06:36:56;;;;;;;1.43;0.80;;;14.00;99.90;14.20;100505.00;;;;4919878;28;114586;-63
2022/10/25 06:39:21;;;;;;;0.70;0.57;;;14.10;99.90;14.40;100505.00;;;;4925709;28;113679;-61
2022/10/25 06:41:47;;;;;;;4.13;1.10;;;14.20;99.90;14.60;100512.00;;;;4930357;28;110971;-62
2022/10/25 06:44:13;;;;;;;1.80;0.60;;;14.40;99.90;14.80;100510.00;;;;4918807;28;108801;-62
2022/10/25 06:46:40;;;;;;;1.40;0.80;;;14.60;99.90;15.00;100500.00;;;;4919371;28;111856;-63
2022/10/25 06:49:06;;;;;;;2.00;0.60;;;14.80;99.90;15.10;100505.00;;;;4926154;28;82988;-62
2022/10/25 06:51:33;;;;;;;1.25;0.73;;;15.00;99.90;15.20;100512.00;;;;4927072;28;109118;-63
2022/10/25 06:54:01;;;;;;;1.13;0.73;;;15.10;99.90;15.40;100505.00;;;;4921809;28;82087;-63
2022/10/25 06:56:28;;;;;;;1.23;0.75;;;15.20;99.90;15.50;100521.00;;;;4922676;28;82898;-64
2022/10/25 06:58:54;;;;;;;0.40;0.40;;;15.50;99.90;15.70;100507.00;;;;4924281;28;83107;-63
2022/10/25 07:01:21;;;;;;;1.60;0.80;;;15.50;99.90;15.80;100519.00;;;;4925900;28;105675;-63
2022/10/25 07:03:49;;;;;;;2.13;0.85;;;15.60;99.90;15.80;100519.00;;;;4930701;28;82596;-63
2022/10/25 07:06:26;;;;;;;4.43;1.20;;;15.70;99.90;15.90;100518.00;;;;4918351;28;83328;-65
2022/10/25 07:08:54;;;;;;;0.93;0.75;;;15.80;99.90;16.10;100523.00;;;;4927252;28;82804;-63
2022/10/25 07:11:21;;;;;;;1.05;0.85;;;15.90;99.90;16.20;100529.00;;;;4928271;28;82730;-62
2022/10/25 07:13:47;;;;;;;0.73;0.60;;;16.10;99.90;16.30;100536.00;;;;4920857;28;102251;-64
2022/10/25 07:16:17;;;;;;;0.93;0.70;;;16.20;99.90;16.60;100527.00;;;;4921436;28;112343;-64
2022/10/25 07:18:43;;;;;;;1.15;0.63;;;16.40;99.90;16.80;100541.00;;;;4921948;28;82991;-64
2022/10/25 07:21:15;;;;;;;2.22;1.05;;;16.60;99.90;16.90;100537.00;;;;4920746;28;100284;-63
2022/10/25 07:23:42;;;;;;;1.00;0.77;;;16.70;99.90;17.00;100539.00;;;;4929196;28;101323;-64
2022/10/25 07:26:17;;;;;;;0.45;0.43;;;16.90;99.90;17.10;100537.00;;;;4929849;28;83901;-63
2022/10/25 07:28:46;;;;;;;0.80;0.65;;;17.00;99.90;17.10;100538.00;;;;4919593;28;96558;-63
2022/10/25 07:31:19;;;;;;;2.13;0.98;;;17.10;99.90;16.90;100527.00;;;;4925725;28;85254;-63
2022/10/25 07:33:45;;;;;;;0.75;0.40;;;17.00;99.90;16.80;100535.00;;;;4921344;28;82626;-64
2022/10/25 07:36:10;;;;;;;1.17;0.77;;;16.80;99.90;16.70;100549.00;;;;4920693;28;100950;-63
2022/10/25 07:38:36;;;;;;;1.17;0.77;;;16.60;99.90;16.60;100549.00;;;;4922754;28;113314;-63
2022/10/25 07:41:02;;;;;;;1.55;0.70;;;16.60;99.90;16.60;100546.00;;;;4916745;28;94355;-64
2022/10/25 07:43:28;;;;;;;1.38;0.65;;;16.50;99.90;16.50;100539.00;;;;4924929;28;83839;-63
2022/10/25 07:45:54;;;;;;;0.73;0.60;;;16.50;99.90;16.50;100546.00;;;;4928706;28;92919;-62
2022/10/25 07:48:21;;;;;;;2.15;0.75;;;16.40;99.90;16.50;100543.00;;;;4921992;28;85428;-63
2022/10/25 07:50:47;;;;;;;1.20;0.63;;;16.40;99.90;16.50;100547.00;;;;4918858;28;83683;-62
2022/10/25 07:53:13;;;;;;;1.95;0.47;;;16.40;99.90;16.60;100547.00;;;;4924319;28;82604;-62
2022/10/25 07:55:39;;;;;;;3.22;0.70;;;16.50;99.90;16.70;100553.00;;;;4922403;28;112482;-62
2022/10/25 07:58:07;;;;;;;1.27;0.65;;;16.50;99.90;16.70;100550.00;;;;4926362;28;82903;-62
2022/10/25 08:00:35;;;;;;;2.28;0.75;;;16.60;99.90;16.70;100550.00;;;;4920966;28;97880;-64
2022/10/25 08:03:01;;;;;;;1.83;0.57;;;16.60;99.90;16.70;100560.00;;;;4921141;28;83056;-62
2022/10/25 08:05:26;;;;;;;1.20;0.82;;;16.60;99.90;16.70;100552.00;;;;4927356;28;82925;-62
2022/10/25 08:07:52;;;;;;;0.50;0.50;;;16.60;99.90;16.70;100549.00;;;;4929757;28;112755;-62
2022/10/25 08:10:19;;;;;;;0.80;0.80;;;16.60;99.90;16.70;100552.00;;;;4925253;28;110624;-63
2022/10/25 08:12:46;;;;;;;1.30;0.68;;;16.60;99.90;16.80;100549.00;;;;4920082;28;83232;-62
2022/10/25 08:15:12;;;;;;;6.07;0.60;;;16.60;99.90;16.90;100557.00;;;;4920470;28;107641;-64
2022/10/25 08:17:38;;;;;;;0.60;0.57;;;16.70;99.90;17.10;100563.00;;;;4919535;28;84658;-62
2022/10/25 08:20:04;;;;;;;0.30;0.30;;;16.90;99.90;17.10;100563.00;;;;4925404;28;110766;-62
2022/10/25 08:22:30;;;;;;;1.45;0.90;;;17.00;99.90;17.20;100563.00;;;;4922711;28;100540;-62
2022/10/25 08:24:56;;;;;;;2.60;0.88;;;17.00;99.90;17.20;100568.00;;;;4920895;28;112500;-61
2022/10/25 08:27:21;;;;;;;0.47;0.47;;;17.10;99.90;17.10;100568.00;;;;4926543;28;112410;-63
2022/10/25 08:29:47;;;;;;;4.97;0.60;;;17.10;99.90;17.10;100568.00;;;;4928392;28;82720;-65
2022/10/25 08:32:13;;;;;;;0.50;0.47;;;17.00;99.90;17.00;100567.00;;;;4922200;28;81851;-62
2022/10/25 08:34:39;;;;;;;3.20;0.70;;;16.90;99.90;16.90;100573.00;;;;4919677;28;112660;-62
2022/10/25 08:37:05;;;;;;;1.45;0.95;;;16.90;99.90;16.90;100580.00;;;;4924515;28;88068;-63
2022/10/25 08:39:30;;;;;;;0.43;0.43;;;16.80;99.90;16.70;100580.00;;;;4920878;28;106984;-62
2022/10/25 08:42:01;;;;;;;0.63;0.43;;;16.70;99.90;16.40;100586.00;;;;4922185;28;105622;-63
2022/10/25 08:44:52;;;;;;;1.73;0.98;;;16.50;99.90;16.10;100588.00;;;;4932615;28;83729;-63
2022/10/25 08:47:38;;;;;;;2.80;0.63;;;16.20;99.90;15.90;100573.00;;;;4923915;28;83156;-63
2022/10/25 08:50:19;;;;;;;1.55;0.73;;;15.90;99.90;15.80;100581.00;;;;4923262;28;104335;-63
2022/10/25 08:52:54;;;;;;;0.38;0.38;;;15.80;99.90;15.80;100583.00;;;;4927683;28;82567;-64
2022/10/25 08:55:34;;;;;;;0.50;0.43;;;15.80;99.90;15.80;100583.00;;;;4924048;28;89871;-62
2022/10/25 08:58:05;;;;;;;4.03;0.52;;;15.80;99.90;15.90;100588.00;;;;4926399;28;82609;-63
2022/10/25 09:00:38;;;;;;;0.95;0.55;;;15.80;99.90;16.00;100588.00;;;;4920722;28;84711;-63
2022/10/25 09:03:04;;;;;;;1.30;0.82;;;15.90;99.90;16.10;100586.00;;;;4923433;28;82798;-62
2022/10/25 09:05:58;;;;;;;2.03;0.90;;;16.00;99.90;16.20;100593.00;;;;4932495;28;91354;-63
2022/10/25 09:08:56;;;;;;;0.85;0.52;;;16.10;99.90;16.40;100592.00;;;;4924500;28;83670;-62
2022/10/25 09:11:47;;;;;;;1.20;0.85;;;16.30;99.90;16.60;100581.00;;;;4928221;28;82452;-61
2022/10/25 09:15:10;;;;;;;1.02;0.57;;;16.40;99.90;17.00;100588.00;;;;4919403;28;102223;-64
2022/10/25 09:17:47;;;;;;;2.10;0.70;;;16.70;99.90;17.50;100588.00;;;;4924492;28;107155;-63
2022/10/25 09:20:26;;;;;;;0.40;0.40;;;17.20;99.90;18.00;100592.00;;;;4921314;28;94684;-64
2022/10/25 09:23:14;;;;;;;0.75;0.50;;;17.60;99.90;18.40;100597.00;;;;4924093;28;94355;-64
2022/10/25 09:25:50;;;;;;;1.90;0.43;;;18.10;99.90;18.80;100603.00;;;;4931179;28;100086;-64
2022/10/25 09:28:24;;;;;;;0.28;0.25;;;18.50;99.90;19.10;100604.00;;;;4921171;28;104504;-64
2022/10/25 09:30:52;;;;;;;3.88;0.57;;;18.80;99.90;19.20;100604.00;;;;4920932;28;104935;-64
2022/10/25 09:33:22;;;;;;;0.20;0.20;;;19.00;99.90;19.20;100603.00;;;;4926566;28;109040;-63
2022/10/25 09:35:52;;;;;;;2.03;0.70;;;19.00;99.90;19.10;100604.00;;;;4922764;28;82931;-63
2022/10/25 09:38:47;;;;;;;0.75;0.65;;;19.00;99.90;18.90;100608.00;;;;4928552;28;83688;-63
2022/10/25 09:41:34;;;;;;;0.77;0.50;;;18.90;99.90;18.80;100617.00;;;;4918017;28;102977;-63
2022/10/25 09:44:16;;;;;;;0.65;0.55;;;18.70;99.90;18.50;100619.00;;;;4923321;28;82755;-64
2022/10/25 09:47:08;;;;;;;0.77;0.73;;;18.50;99.90;18.40;100627.00;;;;4925037;28;97611;-63
2022/10/25 09:49:57;;;;;;;0.55;0.50;;;18.40;99.90;18.20;100629.00;;;;4927091;28;82721;-63
2022/10/25 09:52:51;;;;;;;2.15;0.68;;;18.30;99.90;17.90;100632.00;;;;4920577;28;100954;-64
2022/10/25 09:55:38;;;;;;;0.85;0.43;;;18.00;99.90;17.50;100636.00;;;;4918289;28;104753;-64
2022/10/25 09:58:05;;;;;;;1.05;0.70;;;17.60;99.90;17.20;100632.00;;;;4920142;28;82919;-63
2022/10/25 10:00:36;;;;;;;0.52;0.45;;;17.30;99.90;17.00;100639.00;;;;4926586;28;84608;-63
2022/10/25 10:03:01;;;;;;;0.63;0.40;;;17.10;99.90;17.00;100638.00;;;;4919769;28;105160;-63
2022/10/25 10:05:28;;;;;;;0.63;0.50;;;17.00;99.90;16.90;100646.00;;;;4922530;28;110482;-63
2022/10/25 10:07:54;;;;;;;0.65;0.57;;;16.90;99.90;16.90;100639.00;;;;4927023;28;107919;-63
2022/10/25 10:10:31;;;;;;;1.73;0.50;;;16.90;99.90;16.80;100643.00;;;;4925670;28;113136;-63
2022/10/25 10:13:27;;;;;;;2.15;0.45;;;16.80;99.90;16.80;100635.00;;;;4922317;28;83023;-64
2022/10/25 10:15:57;;;;;;;0.50;0.50;;;16.70;99.90;16.70;100636.00;;;;4925628;28;82894;-63
2022/10/25 10:18:33;;;;;;;0.95;0.55;;;16.60;99.90;16.80;100641.00;;;;4919801;28;104053;-63
2022/10/25 10:21:10;;;;;;;1.05;0.63;;;16.70;99.90;16.90;100639.00;;;;4920640;28;82905;-62
2022/10/25 10:24:01;;;;;;;0.55;0.55;;;16.90;99.90;17.00;100647.00;;;;4931076;28;105247;-63
2022/10/25 10:26:32;;;;;;;3.60;0.88;;;16.90;99.90;17.00;100647.00;;;;4918332;28;105149;-64
2022/10/25 10:29:20;;;;;;;0.35;0.30;;;16.90;99.90;17.00;100638.00;;;;4920336;28;82807;-65
2022/10/25 10:31:50;;;;;;;5.00;0.47;;;16.90;99.90;16.90;100643.00;;;;4915486;28;83269;-61
2022/10/25 10:34:28;;;;;;;1.80;0.60;;;16.90;99.90;16.90;100646.00;;;;4921737;28;104520;-61
2022/10/25 10:37:22;;;;;;;1.40;0.63;;;16.80;99.90;16.80;100635.00;;;;4918387;28;89794;-62
2022/10/25 10:39:55;;;;;;;0.40;0.35;;;16.80;99.90;16.90;100642.00;;;;4922525;28;82456;-63
2022/10/25 10:42:37;;;;;;;0.60;0.50;;;16.80;99.90;16.90;100638.00;;;;4926568;28;84160;-62
2022/10/25 10:45:08;;;;;;;0.65;0.57;;;16.80;99.90;16.90;100642.00;;;;4934425;28;83291;-63
2022/10/25 10:47:48;;;;;;;0.43;0.30;;;16.80;99.90;17.00;100639.00;;;;4919201;28;82658;-63
2022/10/25 10:50:23;;;;;;;2.83;0.68;;;16.90;99.90;17.00;100635.00;;;;4926916;28;83839;-63
2022/10/25 10:52:54;;;;;;;10.95;0.77;;;16.90;99.90;17.10;100641.00;;;;4926354;28;83747;-61
2022/10/25 10:55:34;;;;;;;0.68;0.50;;;16.90;99.90;17.10;100649.00;;;;4921680;28;113594;-61
2022/10/25 10:58:09;;;;;;;1.13;0.63;;;17.00;99.90;17.20;100630.00;;;;4921103;28;82675;-62
2022/10/25 11:00:35;;;;;;;1.05;0.52;;;17.00;99.90;17.20;100635.00;;;;4922043;28;82991;-61